sensor_id;sensor_type;location;lat;lon;timestamp;P1;durP1;ratioP1;P2;durP2;ratioP2
4921;SDS011;16625;53.624;10.106;2023-02-28T00:01:08;5.73;;;4.10;;
4921;SDS011;16625;53.624;10.106;2023-02-28T00:03:35;4.50;;;3.50;;
4921;SDS011;16625;53.624;10.106;2023-02-28T00:06:04;9.20;;;4.63;;
4921;SDS011;16625;53.624;10.106;2023-02-28T00:08:32;6.57;;;3.97;;
4921;SDS011;16625;53.624;10.106;2023-02-28T00:11:00;5.33;;;3.73;;
4921;SDS011;16625;53.624;10.106;2023-02-28T00:13:28;8.00;;;4.43;;
4921;SDS011;16625;53.624;10.106;2023-02-28T00:15:58;9.33;;;3.53;;
4921;SDS011;16625;53.624;10.106;2023-02-28T00:18:29;7.10;;;4.47;;
4921;SDS011;16625;53.624;10.106;2023-02-28T00:20:56;6.70;;;3.50;;
4921;SDS011;16625;53.624;10.106;2023-02-28T00:23:25;5.17;;;3.80;;
4921;SDS011;16625;53.624;10.106;2023-02-28T00:25:52;6.50;;;4.20;;
4921;SDS011;16625;53.624;10.106;2023-02-28T00:28:19;10.80;;;4.50;;
4921;SDS011;16625;53.624;10.106;2023-02-28T00:30:49;5.60;;;3.73;;
4921;SDS011;16625;53.624;10.106;2023-02-28T00:33:16;16.30;;;4.27;;
4921;SDS011;16625;53.624;10.106;2023-02-28T00:35:43;6.43;;;4.10;;
4921;SDS011;16625;53.624;10.106;2023-02-28T00:38:11;8.80;;;4.00;;
4921;SDS011;16625;53.624;10.106;2023-02-28T00:40:39;5.40;;;4.20;;
4921;SDS011;16625;53.624;10.106;2023-02-28T00:43:06;5.73;;;3.87;;
4921;SDS011;16625;53.624;10.106;2023-02-28T00:45:33;6.80;;;4.50;;
4921;SDS011;16625;53.624;10.106;2023-02-28T00:48:00;7.37;;;4.23;;
4921;SDS011;16625;53.624;10.106;2023-02-28T00:50:27;7.07;;;4.47;;
4921;SDS011;16625;53.624;10.106;2023-02-28T00:52:54;5.33;;;3.70;;
4921;SDS011;16625;53.624;10.106;2023-02-28T00:55:21;5.80;;;4.37;;
4921;SDS011;16625;53.624;10.106;2023-02-28T00:57:49;7.43;;;4.83;;
4921;SDS011;16625;53.624;10.106;2023-02-28T01:00:17;8.47;;;3.87;;
4921;SDS011;16625;53.624;10.106;2023-02-28T01:02:44;5.90;;;3.73;;
4921;SDS011;16625;53.624;10.106;2023-02-28T01:05:12;8.40;;;4.40;;
4921;SDS011;16625;53.624;10.106;2023-02-28T01:07:39;5.90;;;4.17;;
4921;SDS011;16625;53.624;10.106;2023-02-28T01:10:09;5.90;;;4.40;;
4921;SDS011;16625;53.624;10.106;2023-02-28T01:12:39;9.03;;;4.13;;
4921;SDS011;16625;53.624;10.106;2023-02-28T01:15:09;10.83;;;5.57;;
4921;SDS011;16625;53.624;10.106;2023-02-28T01:17:36;8.47;;;4.20;;
4921;SDS011;16625;53.624;10.106;2023-02-28T01:20:04;9.77;;;4.60;;
4921;SDS011;16625;53.624;10.106;2023-02-28T01:22:32;7.23;;;3.70;;
4921;SDS011;16625;53.624;10.106;2023-02-28T01:25:00;9.60;;;4.43;;
4921;SDS011;16625;53.624;10.106;2023-02-28T01:27:27;8.07;;;5.10;;
4921;SDS011;16625;53.624;10.106;2023-02-28T01:29:54;10.40;;;3.43;;
4921;SDS011;16625;53.624;10.106;2023-02-28T01:32:23;15.57;;;3.90;;
4921;SDS011;16625;53.624;10.106;2023-02-28T01:34:49;14.77;;;3.87;;
4921;SDS011;16625;53.624;10.106;2023-02-28T01:37:16;7.93;;;4.03;;
4921;SDS011;16625;53.624;10.106;2023-02-28T01:39:43;12.40;;;4.17;;
4921;SDS011;16625;53.624;10.106;2023-02-28T01:42:10;7.37;;;5.10;;
4921;SDS011;16625;53.624;10.106;2023-02-28T01:44:58;8.00;;;4.43;;
4921;SDS011;16625;53.624;10.106;2023-02-28T01:47:32;7.50;;;4.17;;
4921;SDS011;16625;53.624;10.106;2023-02-28T01:50:04;7.87;;;3.57;;
4921;SDS011;16625;53.624;10.106;2023-02-28T01:52:35;10.00;;;4.93;;
4921;SDS011;16625;53.624;10.106;2023-02-28T01:55:04;9.30;;;4.70;;
4921;SDS011;16625;53.624;10.106;2023-02-28T01:57:35;7.47;;;4.13;;
4921;SDS011;16625;53.624;10.106;2023-02-28T02:00:06;8.70;;;4.33;;
4921;SDS011;16625;53.624;10.106;2023-02-28T02:02:39;7.80;;;4.57;;
4921;SDS011;16625;53.624;10.106;2023-02-28T02:05:09;5.43;;;4.27;;
4921;SDS011;16625;53.624;10.106;2023-02-28T02:07:37;10.43;;;4.53;;
4921;SDS011;16625;53.624;10.106;2023-02-28T02:10:10;10.60;;;4.30;;
4921;SDS011;16625;53.624;10.106;2023-02-28T02:15:49;11.10;;;5.87;;
4921;SDS011;16625;53.624;10.106;2023-02-28T02:18:26;7.40;;;4.80;;
4921;SDS011;16625;53.624;10.106;2023-02-28T02:21:07;7.87;;;4.83;;
4921;SDS011;16625;53.624;10.106;2023-02-28T02:23:57;6.13;;;4.50;;
4921;SDS011;16625;53.624;10.106;2023-02-28T02:27:03;10.00;;;4.60;;
4921;SDS011;16625;53.624;10.106;2023-02-28T02:32:44;6.20;;;4.03;;
4921;SDS011;16625;53.624;10.106;2023-02-28T02:35:25;9.00;;;4.90;;
4921;SDS011;16625;53.624;10.106;2023-02-28T02:37:57;8.03;;;5.20;;
4921;SDS011;16625;53.624;10.106;2023-02-28T02:40:30;9.80;;;4.87;;
4921;SDS011;16625;53.624;10.106;2023-02-28T02:43:02;6.60;;;3.87;;
4921;SDS011;16625;53.624;10.106;2023-02-28T02:45:35;6.57;;;4.80;;
4921;SDS011;16625;53.624;10.106;2023-02-28T02:48:09;14.40;;;4.30;;
4921;SDS011;16625;53.624;10.106;2023-02-28T02:50:42;6.43;;;4.50;;
4921;SDS011;16625;53.624;10.106;2023-02-28T02:53:12;8.13;;;5.07;;
4921;SDS011;16625;53.624;10.106;2023-02-28T02:55:43;9.83;;;4.73;;
4921;SDS011;16625;53.624;10.106;2023-02-28T02:58:18;4.77;;;3.90;;
4921;SDS011;16625;53.624;10.106;2023-02-28T03:00:48;5.60;;;4.10;;
4921;SDS011;16625;53.624;10.106;2023-02-28T03:03:19;6.63;;;4.47;;
4921;SDS011;16625;53.624;10.106;2023-02-28T03:05:56;6.07;;;3.90;;
4921;SDS011;16625;53.624;10.106;2023-02-28T03:08:25;4.77;;;4.23;;
4921;SDS011;16625;53.624;10.106;2023-02-28T03:10:55;9.00;;;4.70;;
4921;SDS011;16625;53.624;10.106;2023-02-28T03:13:34;9.13;;;5.30;;
4921;SDS011;16625;53.624;10.106;2023-02-28T03:16:15;7.73;;;4.00;;
4921;SDS011;16625;53.624;10.106;2023-02-28T03:18:54;6.20;;;4.10;;
4921;SDS011;16625;53.624;10.106;2023-02-28T03:21:32;9.23;;;3.80;;
4921;SDS011;16625;53.624;10.106;2023-02-28T03:24:03;7.70;;;5.07;;
4921;SDS011;16625;53.624;10.106;2023-02-28T03:26:39;10.00;;;4.87;;
4921;SDS011;16625;53.624;10.106;2023-02-28T03:29:13;4.90;;;4.20;;
4921;SDS011;16625;53.624;10.106;2023-02-28T03:31:47;7.77;;;3.87;;
4921;SDS011;16625;53.624;10.106;2023-02-28T03:34:17;12.27;;;4.13;;
4921;SDS011;16625;53.624;10.106;2023-02-28T03:36:55;8.40;;;4.63;;
4921;SDS011;16625;53.624;10.106;2023-02-28T03:39:27;5.80;;;4.47;;
4921;SDS011;16625;53.624;10.106;2023-02-28T03:42:00;6.90;;;4.67;;
4921;SDS011;16625;53.624;10.106;2023-02-28T03:44:30;10.50;;;4.17;;
4921;SDS011;16625;53.624;10.106;2023-02-28T03:47:02;7.03;;;3.57;;
4921;SDS011;16625;53.624;10.106;2023-02-28T03:49:33;6.70;;;4.80;;
4921;SDS011;16625;53.624;10.106;2023-02-28T03:52:05;7.83;;;5.07;;
4921;SDS011;16625;53.624;10.106;2023-02-28T03:54:35;20.17;;;5.10;;
4921;SDS011;16625;53.624;10.106;2023-02-28T03:57:09;10.83;;;4.20;;
4921;SDS011;16625;53.624;10.106;2023-02-28T03:59:42;7.60;;;4.10;;
4921;SDS011;16625;53.624;10.106;2023-02-28T04:02:12;11.13;;;4.30;;
4921;SDS011;16625;53.624;10.106;2023-02-28T04:04:39;6.63;;;4.03;;
4921;SDS011;16625;53.624;10.106;2023-02-28T04:07:15;7.00;;;4.27;;
4921;SDS011;16625;53.624;10.106;2023-02-28T04:09:42;7.30;;;4.67;;
4921;SDS011;16625;53.624;10.106;2023-02-28T04:12:09;8.47;;;3.97;;
4921;SDS011;16625;53.624;10.106;2023-02-28T04:14:36;6.03;;;3.93;;
4921;SDS011;16625;53.624;10.106;2023-02-28T04:17:03;7.70;;;3.77;;
4921;SDS011;16625;53.624;10.106;2023-02-28T04:19:30;7.03;;;3.90;;
4921;SDS011;16625;53.624;10.106;2023-02-28T04:21:56;7.60;;;4.33;;
4921;SDS011;16625;53.624;10.106;2023-02-28T04:24:25;10.53;;;4.00;;
4921;SDS011;16625;53.624;10.106;2023-02-28T04:26:54;5.60;;;4.50;;
4921;SDS011;16625;53.624;10.106;2023-02-28T04:29:24;5.60;;;4.87;;
4921;SDS011;16625;53.624;10.106;2023-02-28T04:31:52;4.60;;;3.60;;
4921;SDS011;16625;53.624;10.106;2023-02-28T04:34:19;9.40;;;4.73;;
4921;SDS011;16625;53.624;10.106;2023-02-28T04:36:48;6.47;;;4.67;;
4921;SDS011;16625;53.624;10.106;2023-02-28T04:39:15;9.13;;;6.07;;
4921;SDS011;16625;53.624;10.106;2023-02-28T04:41:45;12.80;;;4.70;;
4921;SDS011;16625;53.624;10.106;2023-02-28T04:44:12;5.80;;;3.43;;
4921;SDS011;16625;53.624;10.106;2023-02-28T04:46:40;9.67;;;5.20;;
4921;SDS011;16625;53.624;10.106;2023-02-28T04:49:07;6.10;;;4.20;;
4921;SDS011;16625;53.624;10.106;2023-02-28T04:51:36;4.23;;;3.33;;
4921;SDS011;16625;53.624;10.106;2023-02-28T04:54:05;7.50;;;5.93;;
4921;SDS011;16625;53.624;10.106;2023-02-28T04:56:32;11.33;;;5.10;;
4921;SDS011;16625;53.624;10.106;2023-02-28T04:59:03;9.87;;;4.90;;
4921;SDS011;16625;53.624;10.106;2023-02-28T05:01:31;8.00;;;4.43;;
4921;SDS011;16625;53.624;10.106;2023-02-28T05:04:00;6.87;;;3.93;;
4921;SDS011;16625;53.624;10.106;2023-02-28T05:06:29;5.80;;;4.03;;
4921;SDS011;16625;53.624;10.106;2023-02-28T05:08:57;5.57;;;4.40;;
4921;SDS011;16625;53.624;10.106;2023-02-28T05:11:25;7.63;;;4.47;;
4921;SDS011;16625;53.624;10.106;2023-02-28T05:13:54;5.73;;;4.47;;
4921;SDS011;16625;53.624;10.106;2023-02-28T05:16:23;3.83;;;3.40;;
4921;SDS011;16625;53.624;10.106;2023-02-28T05:18:50;6.00;;;3.80;;
4921;SDS011;16625;53.624;10.106;2023-02-28T05:21:26;9.67;;;4.33;;
4921;SDS011;16625;53.624;10.106;2023-02-28T05:23:55;9.57;;;3.87;;
4921;SDS011;16625;53.624;10.106;2023-02-28T05:26:24;6.47;;;4.10;;
4921;SDS011;16625;53.624;10.106;2023-02-28T05:28:52;7.83;;;4.10;;
4921;SDS011;16625;53.624;10.106;2023-02-28T05:31:19;12.60;;;5.43;;
4921;SDS011;16625;53.624;10.106;2023-02-28T05:33:48;5.57;;;3.77;;
4921;SDS011;16625;53.624;10.106;2023-02-28T05:36:15;6.10;;;4.23;;
4921;SDS011;16625;53.624;10.106;2023-02-28T05:38:42;5.97;;;4.67;;
4921;SDS011;16625;53.624;10.106;2023-02-28T05:41:16;6.90;;;4.80;;
4921;SDS011;16625;53.624;10.106;2023-02-28T05:43:46;6.70;;;4.17;;
4921;SDS011;16625;53.624;10.106;2023-02-28T05:46:14;6.93;;;5.60;;
4921;SDS011;16625;53.624;10.106;2023-02-28T05:48:42;7.53;;;4.90;;
4921;SDS011;16625;53.624;10.106;2023-02-28T05:51:14;8.07;;;5.03;;
4921;SDS011;16625;53.624;10.106;2023-02-28T05:53:42;4.90;;;3.83;;
4921;SDS011;16625;53.624;10.106;2023-02-28T05:56:09;8.87;;;5.30;;
4921;SDS011;16625;53.624;10.106;2023-02-28T05:58:36;6.80;;;4.17;;
4921;SDS011;16625;53.624;10.106;2023-02-28T06:03:49;6.23;;;4.27;;
4921;SDS011;16625;53.624;10.106;2023-02-28T06:06:17;11.80;;;4.60;;
4921;SDS011;16625;53.624;10.106;2023-02-28T06:08:46;6.03;;;4.73;;
4921;SDS011;16625;53.624;10.106;2023-02-28T06:11:13;8.70;;;5.03;;
4921;SDS011;16625;53.624;10.106;2023-02-28T06:13:43;9.80;;;5.10;;
4921;SDS011;16625;53.624;10.106;2023-02-28T06:16:10;9.83;;;6.00;;
4921;SDS011;16625;53.624;10.106;2023-02-28T06:18:37;7.80;;;4.47;;
4921;SDS011;16625;53.624;10.106;2023-02-28T06:21:04;5.13;;;4.43;;
4921;SDS011;16625;53.624;10.106;2023-02-28T06:23:32;12.77;;;5.80;;
4921;SDS011;16625;53.624;10.106;2023-02-28T06:25:59;6.57;;;3.53;;
4921;SDS011;16625;53.624;10.106;2023-02-28T06:28:27;11.10;;;5.07;;
4921;SDS011;16625;53.624;10.106;2023-02-28T06:30:54;5.83;;;4.70;;
4921;SDS011;16625;53.624;10.106;2023-02-28T06:33:21;7.93;;;4.60;;
4921;SDS011;16625;53.624;10.106;2023-02-28T06:35:49;8.20;;;5.13;;
4921;SDS011;16625;53.624;10.106;2023-02-28T06:38:17;7.63;;;4.40;;
4921;SDS011;16625;53.624;10.106;2023-02-28T06:40:48;5.27;;;4.17;;
4921;SDS011;16625;53.624;10.106;2023-02-28T06:43:19;8.23;;;4.73;;
4921;SDS011;16625;53.624;10.106;2023-02-28T06:45:46;9.80;;;5.23;;
4921;SDS011;16625;53.624;10.106;2023-02-28T06:48:13;9.10;;;4.97;;
4921;SDS011;16625;53.624;10.106;2023-02-28T06:50:40;9.87;;;5.40;;
4921;SDS011;16625;53.624;10.106;2023-02-28T06:53:07;9.80;;;5.77;;
4921;SDS011;16625;53.624;10.106;2023-02-28T06:55:37;19.70;;;6.80;;
4921;SDS011;16625;53.624;10.106;2023-02-28T06:58:06;12.83;;;7.13;;
4921;SDS011;16625;53.624;10.106;2023-02-28T07:00:39;8.23;;;5.50;;
4921;SDS011;16625;53.624;10.106;2023-02-28T07:03:07;6.10;;;4.93;;
4921;SDS011;16625;53.624;10.106;2023-02-28T07:05:34;12.10;;;5.53;;
4921;SDS011;16625;53.624;10.106;2023-02-28T07:08:01;8.43;;;5.10;;
4921;SDS011;16625;53.624;10.106;2023-02-28T07:10:28;10.50;;;6.43;;
4921;SDS011;16625;53.624;10.106;2023-02-28T07:12:55;9.63;;;5.33;;
4921;SDS011;16625;53.624;10.106;2023-02-28T07:15:24;7.00;;;5.40;;
4921;SDS011;16625;53.624;10.106;2023-02-28T07:17:51;10.43;;;5.30;;
4921;SDS011;16625;53.624;10.106;2023-02-28T07:20:17;14.30;;;6.90;;
4921;SDS011;16625;53.624;10.106;2023-02-28T07:22:44;10.80;;;6.43;;
4921;SDS011;16625;53.624;10.106;2023-02-28T07:25:17;6.80;;;4.80;;
4921;SDS011;16625;53.624;10.106;2023-02-28T07:27:44;11.23;;;5.80;;
4921;SDS011;16625;53.624;10.106;2023-02-28T07:30:11;11.17;;;5.33;;
4921;SDS011;16625;53.624;10.106;2023-02-28T07:32:40;11.40;;;6.07;;
4921;SDS011;16625;53.624;10.106;2023-02-28T07:35:07;6.13;;;5.10;;
4921;SDS011;16625;53.624;10.106;2023-02-28T07:37:35;9.60;;;4.93;;
4921;SDS011;16625;53.624;10.106;2023-02-28T07:40:02;9.90;;;5.60;;
4921;SDS011;16625;53.624;10.106;2023-02-28T07:42:33;6.90;;;5.10;;
4921;SDS011;16625;53.624;10.106;2023-02-28T07:45:00;9.03;;;6.20;;
4921;SDS011;16625;53.624;10.106;2023-02-28T07:47:28;7.87;;;5.77;;
4921;SDS011;16625;53.624;10.106;2023-02-28T07:49:57;16.83;;;6.47;;
4921;SDS011;16625;53.624;10.106;2023-02-28T07:52:24;13.23;;;5.40;;
4921;SDS011;16625;53.624;10.106;2023-02-28T07:54:51;13.33;;;5.50;;
4921;SDS011;16625;53.624;10.106;2023-02-28T07:57:18;12.60;;;6.37;;
4921;SDS011;16625;53.624;10.106;2023-02-28T07:59:45;10.13;;;5.57;;
4921;SDS011;16625;53.624;10.106;2023-02-28T08:02:12;9.03;;;5.63;;
4921;SDS011;16625;53.624;10.106;2023-02-28T08:04:40;7.00;;;5.77;;
4921;SDS011;16625;53.624;10.106;2023-02-28T08:07:09;9.83;;;6.00;;
4921;SDS011;16625;53.624;10.106;2023-02-28T08:09:38;13.73;;;6.63;;
4921;SDS011;16625;53.624;10.106;2023-02-28T08:12:10;9.23;;;6.10;;
4921;SDS011;16625;53.624;10.106;2023-02-28T08:15:18;9.60;;;6.13;;
4921;SDS011;16625;53.624;10.106;2023-02-28T08:17:46;11.63;;;6.77;;
4921;SDS011;16625;53.624;10.106;2023-02-28T08:20:13;15.87;;;6.27;;
4921;SDS011;16625;53.624;10.106;2023-02-28T08:22:58;12.13;;;7.70;;
4921;SDS011;16625;53.624;10.106;2023-02-28T08:25:25;10.27;;;6.13;;
4921;SDS011;16625;53.624;10.106;2023-02-28T08:27:52;13.10;;;7.03;;
4921;SDS011;16625;53.624;10.106;2023-02-28T08:30:22;15.23;;;6.60;;
4921;SDS011;16625;53.624;10.106;2023-02-28T08:32:52;21.10;;;6.90;;
4921;SDS011;16625;53.624;10.106;2023-02-28T08:35:21;12.40;;;6.40;;
4921;SDS011;16625;53.624;10.106;2023-02-28T08:37:53;5.70;;;5.07;;
4921;SDS011;16625;53.624;10.106;2023-02-28T08:40:30;18.40;;;6.37;;
4921;SDS011;16625;53.624;10.106;2023-02-28T08:42:59;9.37;;;5.47;;
4921;SDS011;16625;53.624;10.106;2023-02-28T08:45:31;11.83;;;7.17;;
4921;SDS011;16625;53.624;10.106;2023-02-28T08:47:58;9.47;;;6.03;;
4921;SDS011;16625;53.624;10.106;2023-02-28T08:50:25;11.63;;;7.50;;
4921;SDS011;16625;53.624;10.106;2023-02-28T08:52:52;11.87;;;5.20;;
4921;SDS011;16625;53.624;10.106;2023-02-28T08:55:19;8.83;;;5.83;;
4921;SDS011;16625;53.624;10.106;2023-02-28T08:57:47;8.80;;;6.70;;
4921;SDS011;16625;53.624;10.106;2023-02-28T09:00:14;9.37;;;5.60;;
4921;SDS011;16625;53.624;10.106;2023-02-28T09:02:41;10.20;;;5.10;;
4921;SDS011;16625;53.624;10.106;2023-02-28T09:05:09;7.53;;;5.50;;
4921;SDS011;16625;53.624;10.106;2023-02-28T09:10:58;8.03;;;5.43;;
4921;SDS011;16625;53.624;10.106;2023-02-28T09:13:35;15.53;;;5.37;;
4921;SDS011;16625;53.624;10.106;2023-02-28T09:16:13;5.90;;;3.83;;
4921;SDS011;16625;53.624;10.106;2023-02-28T09:18:54;28.73;;;5.07;;
4921;SDS011;16625;53.624;10.106;2023-02-28T09:21:23;5.43;;;4.70;;
4921;SDS011;16625;53.624;10.106;2023-02-28T09:23:50;15.93;;;5.40;;
4921;SDS011;16625;53.624;10.106;2023-02-28T09:26:18;5.80;;;4.23;;
4921;SDS011;16625;53.624;10.106;2023-02-28T09:28:51;7.00;;;4.83;;
4921;SDS011;16625;53.624;10.106;2023-02-28T09:31:20;8.50;;;4.30;;
4921;SDS011;16625;53.624;10.106;2023-02-28T09:33:49;5.37;;;4.57;;
4921;SDS011;16625;53.624;10.106;2023-02-28T09:36:18;9.40;;;4.50;;
4921;SDS011;16625;53.624;10.106;2023-02-28T09:38:45;7.20;;;4.07;;
4921;SDS011;16625;53.624;10.106;2023-02-28T09:41:13;7.43;;;3.70;;
4921;SDS011;16625;53.624;10.106;2023-02-28T09:43:43;8.67;;;5.20;;
4921;SDS011;16625;53.624;10.106;2023-02-28T09:46:18;8.20;;;4.30;;
4921;SDS011;16625;53.624;10.106;2023-02-28T09:48:58;11.23;;;4.80;;
4921;SDS011;16625;53.624;10.106;2023-02-28T09:51:44;11.27;;;4.73;;
4921;SDS011;16625;53.624;10.106;2023-02-28T09:54:20;7.00;;;4.27;;
4921;SDS011;16625;53.624;10.106;2023-02-28T09:56:53;4.90;;;3.70;;
4921;SDS011;16625;53.624;10.106;2023-02-28T09:59:34;9.00;;;4.03;;
4921;SDS011;16625;53.624;10.106;2023-02-28T10:02:24;5.50;;;4.10;;
4921;SDS011;16625;53.624;10.106;2023-02-28T10:05:18;8.50;;;4.47;;
4921;SDS011;16625;53.624;10.106;2023-02-28T10:07:53;8.10;;;4.10;;
4921;SDS011;16625;53.624;10.106;2023-02-28T10:10:29;8.30;;;4.83;;
4921;SDS011;16625;53.624;10.106;2023-02-28T10:13:11;6.60;;;4.67;;
4921;SDS011;16625;53.624;10.106;2023-02-28T10:15:46;22.53;;;4.77;;
4921;SDS011;16625;53.624;10.106;2023-02-28T10:18:21;5.27;;;3.53;;
4921;SDS011;16625;53.624;10.106;2023-02-28T10:20:51;9.60;;;4.00;;
4921;SDS011;16625;53.624;10.106;2023-02-28T10:23:27;7.47;;;4.27;;
4921;SDS011;16625;53.624;10.106;2023-02-28T10:26:09;6.27;;;4.30;;
4921;SDS011;16625;53.624;10.106;2023-02-28T10:28:50;5.40;;;3.40;;
4921;SDS011;16625;53.624;10.106;2023-02-28T10:31:23;7.43;;;3.77;;
4921;SDS011;16625;53.624;10.106;2023-02-28T10:34:18;5.50;;;3.50;;
4921;SDS011;16625;53.624;10.106;2023-02-28T10:40:31;5.27;;;3.10;;
4921;SDS011;16625;53.624;10.106;2023-02-28T10:43:01;4.87;;;3.60;;
4921;SDS011;16625;53.624;10.106;2023-02-28T10:45:35;6.10;;;3.43;;
4921;SDS011;16625;53.624;10.106;2023-02-28T10:49:01;5.00;;;3.53;;
4921;SDS011;16625;53.624;10.106;2023-02-28T10:51:40;8.73;;;3.30;;
4921;SDS011;16625;53.624;10.106;2023-02-28T10:54:16;4.47;;;3.17;;
4921;SDS011;16625;53.624;10.106;2023-02-28T10:57:05;4.63;;;2.97;;
4921;SDS011;16625;53.624;10.106;2023-02-28T10:59:44;4.20;;;2.90;;
4921;SDS011;16625;53.624;10.106;2023-02-28T11:04:58;6.67;;;3.60;;
4921;SDS011;16625;53.624;10.106;2023-02-28T11:07:30;6.77;;;3.30;;
4921;SDS011;16625;53.624;10.106;2023-02-28T11:09:59;5.97;;;3.33;;
4921;SDS011;16625;53.624;10.106;2023-02-28T11:12:29;9.20;;;3.43;;
4921;SDS011;16625;53.624;10.106;2023-02-28T11:15:01;5.37;;;3.37;;
4921;SDS011;16625;53.624;10.106;2023-02-28T11:17:30;10.10;;;4.17;;
4921;SDS011;16625;53.624;10.106;2023-02-28T11:19:59;7.23;;;3.57;;
4921;SDS011;16625;53.624;10.106;2023-02-28T11:22:40;6.97;;;3.90;;
4921;SDS011;16625;53.624;10.106;2023-02-28T11:25:20;5.33;;;3.43;;
4921;SDS011;16625;53.624;10.106;2023-02-28T11:27:50;5.27;;;3.23;;
4921;SDS011;16625;53.624;10.106;2023-02-28T11:30:25;7.10;;;4.17;;
4921;SDS011;16625;53.624;10.106;2023-02-28T11:32:54;5.03;;;4.03;;
4921;SDS011;16625;53.624;10.106;2023-02-28T11:35:23;5.63;;;3.50;;
4921;SDS011;16625;53.624;10.106;2023-02-28T11:37:55;3.53;;;3.03;;
4921;SDS011;16625;53.624;10.106;2023-02-28T11:40:24;5.20;;;3.77;;
4921;SDS011;16625;53.624;10.106;2023-02-28T11:43:10;4.77;;;3.43;;
4921;SDS011;16625;53.624;10.106;2023-02-28T11:45:55;13.93;;;3.60;;
4921;SDS011;16625;53.624;10.106;2023-02-28T11:48:37;5.20;;;3.80;;
4921;SDS011;16625;53.624;10.106;2023-02-28T11:51:14;5.60;;;3.00;;
4921;SDS011;16625;53.624;10.106;2023-02-28T11:53:55;8.93;;;3.40;;
4921;SDS011;16625;53.624;10.106;2023-02-28T11:56:41;8.50;;;3.20;;
4921;SDS011;16625;53.624;10.106;2023-02-28T12:02:22;8.60;;;3.47;;
4921;SDS011;16625;53.624;10.106;2023-02-28T12:04:55;6.70;;;3.10;;
4921;SDS011;16625;53.624;10.106;2023-02-28T12:07:39;6.20;;;3.73;;
4921;SDS011;16625;53.624;10.106;2023-02-28T12:10:18;10.20;;;4.30;;
4921;SDS011;16625;53.624;10.106;2023-02-28T12:12:50;5.90;;;3.93;;
4921;SDS011;16625;53.624;10.106;2023-02-28T12:15:45;4.87;;;3.37;;
4921;SDS011;16625;53.624;10.106;2023-02-28T12:18:36;5.37;;;3.67;;
4921;SDS011;16625;53.624;10.106;2023-02-28T12:21:21;5.27;;;3.93;;
4921;SDS011;16625;53.624;10.106;2023-02-28T12:23:58;9.80;;;4.00;;
4921;SDS011;16625;53.624;10.106;2023-02-28T12:26:38;5.37;;;3.83;;
4921;SDS011;16625;53.624;10.106;2023-02-28T12:35:41;3.90;;;3.20;;
4921;SDS011;16625;53.624;10.106;2023-02-28T12:38:15;5.90;;;4.13;;
4921;SDS011;16625;53.624;10.106;2023-02-28T12:40:47;4.07;;;3.60;;
4921;SDS011;16625;53.624;10.106;2023-02-28T12:43:24;5.30;;;3.70;;
4921;SDS011;16625;53.624;10.106;2023-02-28T12:46:02;5.40;;;3.93;;
4921;SDS011;16625;53.624;10.106;2023-02-28T12:48:41;4.37;;;3.17;;
4921;SDS011;16625;53.624;10.106;2023-02-28T12:51:15;5.43;;;3.90;;
4921;SDS011;16625;53.624;10.106;2023-02-28T12:53:52;6.03;;;3.90;;
4921;SDS011;16625;53.624;10.106;2023-02-28T12:56:35;6.87;;;3.17;;
4921;SDS011;16625;53.624;10.106;2023-02-28T12:59:17;6.87;;;3.90;;
4921;SDS011;16625;53.624;10.106;2023-02-28T13:02:00;4.97;;;2.80;;
4921;SDS011;16625;53.624;10.106;2023-02-28T13:04:43;8.57;;;4.37;;
4921;SDS011;16625;53.624;10.106;2023-02-28T13:10:38;5.33;;;3.30;;
4921;SDS011;16625;53.624;10.106;2023-02-28T13:13:13;6.90;;;3.60;;
4921;SDS011;16625;53.624;10.106;2023-02-28T13:16:03;3.40;;;2.67;;
4921;SDS011;16625;53.624;10.106;2023-02-28T13:18:36;6.53;;;4.00;;
4921;SDS011;16625;53.624;10.106;2023-02-28T13:21:07;4.37;;;3.50;;
4921;SDS011;16625;53.624;10.106;2023-02-28T13:29:29;5.03;;;2.83;;
4921;SDS011;16625;53.624;10.106;2023-02-28T13:38:17;3.90;;;3.00;;
4921;SDS011;16625;53.624;10.106;2023-02-28T13:40:50;5.00;;;3.00;;
4921;SDS011;16625;53.624;10.106;2023-02-28T13:43:20;7.37;;;3.50;;
4921;SDS011;16625;53.624;10.106;2023-02-28T13:48:39;4.67;;;3.30;;
4921;SDS011;16625;53.624;10.106;2023-02-28T13:51:31;5.80;;;3.23;;
4921;SDS011;16625;53.624;10.106;2023-02-28T13:57:03;8.30;;;3.10;;
4921;SDS011;16625;53.624;10.106;2023-02-28T13:59:45;4.90;;;2.90;;
4921;SDS011;16625;53.624;10.106;2023-02-28T14:02:29;6.53;;;3.00;;
4921;SDS011;16625;53.624;10.106;2023-02-28T14:05:12;4.80;;;2.43;;
4921;SDS011;16625;53.624;10.106;2023-02-28T14:07:43;3.87;;;2.50;;
4921;SDS011;16625;53.624;10.106;2023-02-28T14:10:20;9.13;;;3.33;;
4921;SDS011;16625;53.624;10.106;2023-02-28T14:12:56;7.20;;;2.53;;
4921;SDS011;16625;53.624;10.106;2023-02-28T14:15:30;3.87;;;2.80;;
4921;SDS011;16625;53.624;10.106;2023-02-28T14:18:17;3.80;;;3.00;;
4921;SDS011;16625;53.624;10.106;2023-02-28T14:20:48;13.03;;;4.70;;
4921;SDS011;16625;53.624;10.106;2023-02-28T14:23:24;4.80;;;2.23;;
4921;SDS011;16625;53.624;10.106;2023-02-28T14:26:01;5.23;;;2.87;;
4921;SDS011;16625;53.624;10.106;2023-02-28T14:28:40;4.83;;;2.90;;
4921;SDS011;16625;53.624;10.106;2023-02-28T14:31:17;3.53;;;2.80;;
4921;SDS011;16625;53.624;10.106;2023-02-28T14:36:52;5.37;;;2.73;;
4921;SDS011;16625;53.624;10.106;2023-02-28T14:39:23;6.30;;;2.87;;
4921;SDS011;16625;53.624;10.106;2023-02-28T14:41:56;3.70;;;2.70;;
4921;SDS011;16625;53.624;10.106;2023-02-28T14:44:29;10.10;;;3.00;;
4921;SDS011;16625;53.624;10.106;2023-02-28T14:46:57;5.77;;;2.40;;
4921;SDS011;16625;53.624;10.106;2023-02-28T14:49:32;3.87;;;2.67;;
4921;SDS011;16625;53.624;10.106;2023-02-28T14:52:05;6.30;;;2.77;;
4921;SDS011;16625;53.624;10.106;2023-02-28T14:54:36;3.60;;;2.60;;
4921;SDS011;16625;53.624;10.106;2023-02-28T14:57:06;7.13;;;2.90;;
4921;SDS011;16625;53.624;10.106;2023-02-28T14:59:56;4.57;;;3.00;;
4921;SDS011;16625;53.624;10.106;2023-02-28T15:02:25;6.67;;;2.70;;
4921;SDS011;16625;53.624;10.106;2023-02-28T15:04:56;6.60;;;3.13;;
4921;SDS011;16625;53.624;10.106;2023-02-28T15:07:25;3.83;;;2.70;;
4921;SDS011;16625;53.624;10.106;2023-02-28T15:10:13;6.50;;;2.80;;
4921;SDS011;16625;53.624;10.106;2023-02-28T15:12:45;3.50;;;2.90;;
4921;SDS011;16625;53.624;10.106;2023-02-28T15:15:18;4.80;;;3.20;;
4921;SDS011;16625;53.624;10.106;2023-02-28T15:17:49;4.27;;;3.00;;
4921;SDS011;16625;53.624;10.106;2023-02-28T15:20:19;4.33;;;3.03;;
4921;SDS011;16625;53.624;10.106;2023-02-28T15:22:47;5.30;;;2.40;;
4921;SDS011;16625;53.624;10.106;2023-02-28T15:25:20;4.43;;;2.90;;
4921;SDS011;16625;53.624;10.106;2023-02-28T15:27:49;3.23;;;2.83;;
4921;SDS011;16625;53.624;10.106;2023-02-28T15:30:18;7.70;;;3.20;;
4921;SDS011;16625;53.624;10.106;2023-02-28T15:33:01;3.27;;;2.97;;
4921;SDS011;16625;53.624;10.106;2023-02-28T15:35:32;3.90;;;2.80;;
4921;SDS011;16625;53.624;10.106;2023-02-28T15:38:00;5.50;;;3.00;;
4921;SDS011;16625;53.624;10.106;2023-02-28T15:40:35;7.73;;;2.87;;
4921;SDS011;16625;53.624;10.106;2023-02-28T15:43:05;3.30;;;2.50;;
4921;SDS011;16625;53.624;10.106;2023-02-28T15:45:40;7.00;;;3.20;;
4921;SDS011;16625;53.624;10.106;2023-02-28T15:48:14;4.17;;;2.97;;
4921;SDS011;16625;53.624;10.106;2023-02-28T15:50:44;4.93;;;3.23;;
4921;SDS011;16625;53.624;10.106;2023-02-28T15:53:14;13.43;;;3.30;;
4921;SDS011;16625;53.624;10.106;2023-02-28T15:55:44;3.50;;;2.70;;
4921;SDS011;16625;53.624;10.106;2023-02-28T15:58:24;4.23;;;2.77;;
4921;SDS011;16625;53.624;10.106;2023-02-28T16:03:53;6.73;;;2.70;;
4921;SDS011;16625;53.624;10.106;2023-02-28T16:06:35;3.60;;;2.70;;
4921;SDS011;16625;53.624;10.106;2023-02-28T16:09:08;3.13;;;2.40;;
4921;SDS011;16625;53.624;10.106;2023-02-28T16:11:39;4.07;;;2.90;;